Fairbanks, Alaska
Current Conditions -  °F | °C
As of 12:56 AM on Saturday 25 Oct 2014 (Local Time) from PAFB Reporting Station
Overcast Overcast  
Wind Chill: 21°   Ceiling: 1800
Heat Index: 21°   Visibility: 10mi
Dew Point: 19°   Wind: 3mph
Humidity: 92%   Direction: 150°SSE
Pressure: 29.99"   Gusts: NA
Location:  64.85°N, 147.72°W
Report Text: PAFB 250856Z AUTO 15003KT 10SM SCT007 BKN018 OVC036 M06/M07 A2999 RMK SNE30 SLP165 P0000 60001 T10611072 51009 $ VIA AUTODIAL
Loading
Personal Weather Stations






























Interactive Weather Map
Tropical Storm Tracking
New forecast layout! Learn more

10-Day Weather Forecast

Advertisements
Track Severe Weather on mobile